Time;durP1;ratioP1;P1;durP2;ratioP2;P2;SDS_P1;SDS_P2;PMS_P1;PMS_P2;Temp;Humidity;BMP_temperature;BMP_pressure;BME280_temperature;BME280_humidity;BME280_pressure;Samples;Min_cycle;Max_cycle;Signal;HPM_P1;HPM_P2
2022/07/18 00:00:17;;;;;;;;;;;;;;;18.14;60.34;100770.31;5116534;28;2101;-94
2022/07/18 00:02:43;;;;;;;;;;;;;;;18.14;60.54;100773.06;5112691;28;2220;-94
2022/07/18 00:05:10;;;;;;;;;;;;;;;18.13;60.60;100776.88;5120218;27;1232;-94
2022/07/18 00:07:36;;;;;;;;;;;;;;;18.12;60.53;100781.50;5121581;27;1890;-94
2022/07/18 00:10:03;;;;;;;;;;;;;;;18.11;60.48;100785.31;5111860;28;1325;-94
2022/07/18 00:12:29;;;;;;;;;;;;;;;18.11;60.26;100784.47;5109742;27;1880;-94
2022/07/18 00:14:56;;;;;;;;;;;;;;;18.09;60.44;100782.03;5119716;27;1785;-94
2022/07/18 00:17:22;;;;;;;;;;;;;;;18.08;60.46;100788.56;5121609;27;1621;-94
2022/07/18 00:19:49;;;;;;;;;;;;;;;18.08;60.51;100780.38;5121874;27;1173;-94
2022/07/18 00:22:15;;;;;;;;;;;;;;;18.08;60.45;100780.38;5117661;28;2514;-94
2022/07/18 00:24:42;;;;;;;;;;;;;;;18.07;60.46;100776.03;5104861;28;1202;-93
2022/07/18 00:27:08;;;;;;;;;;;;;;;18.08;60.33;100782.28;5110839;27;1974;-94
2022/07/18 00:29:36;;;;;;;;;;;;;;;18.06;60.42;100781.72;5103971;28;1616;-93
2022/07/18 00:32:03;;;;;;;;;;;;;;;18.06;60.35;100782.56;5102198;28;1270;-93
2022/07/18 00:34:31;;;;;;;;;;;;;;;18.04;60.25;100782.00;5120233;27;5230;-94
2022/07/18 00:36:58;;;;;;;;;;;;;;;18.04;60.31;100790.19;5109903;27;1275;-94
2022/07/18 00:39:24;;;;;;;;;;;;;;;18.03;60.30;100784.97;5121557;27;1320;-94
2022/07/18 00:41:51;;;;;;;;;;;;;;;18.03;60.15;100780.38;5111990;27;2496;-94
2022/07/18 00:44:17;;;;;;;;;;;;;;;18.03;60.21;100784.97;5121269;27;1205;-93
2022/07/18 00:46:44;;;;;;;;;;;;;;;18.01;60.22;100777.09;5121358;27;2892;-94
2022/07/18 00:49:10;;;;;;;;;;;;;;;18.00;60.29;100771.88;5116478;27;1917;-93
2022/07/18 00:51:38;;;;;;;;;;;;;;;18.00;60.18;100782.78;5109645;28;2551;-94
2022/07/18 00:54:04;;;;;;;;;;;;;;;17.98;60.22;100776.78;5108926;27;1596;-94
2022/07/18 00:56:31;;;;;;;;;;;;;;;17.98;60.28;100774.88;5101199;28;2053;-94
2022/07/18 00:58:57;;;;;;;;;;;;;;;17.97;60.17;100762.34;5099200;28;1559;-94
2022/07/18 01:04:08;;;;;;;;;;;;;;;17.96;60.16;100762.59;5101222;28;2475;-94
2022/07/18 01:06:35;;;;;;;;;;;;;;;17.96;60.38;100762.59;5101940;28;2021;-94
2022/07/18 01:09:01;;;;;;;;;;;;;;;17.95;60.08;100758.25;5105769;28;1902;-93
2022/07/18 01:11:28;;;;;;;;;;;;;;;17.93;60.16;100755.78;5098944;28;1866;-94
2022/07/18 01:13:54;;;;;;;;;;;;;;;17.93;60.18;100761.22;5102498;28;1686;-94
2022/07/18 01:16:21;;;;;;;;;;;;;;;17.92;60.21;100757.69;5110986;28;1911;-93
2022/07/18 01:18:47;;;;;;;;;;;;;;;17.91;59.91;100757.94;5096178;27;1670;-94
2022/07/18 01:21:14;;;;;;;;;;;;;;;17.89;59.95;100763.66;5096633;28;2270;-94
2022/07/18 01:23:40;;;;;;;;;;;;;;;17.90;59.87;100759.03;5102921;28;1566;-94
2022/07/18 01:26:07;;;;;;;;;;;;;;;17.90;60.10;100753.56;5113425;28;1704;-94
2022/07/18 01:28:33;;;;;;;;;;;;;;;17.89;60.14;100760.13;5102567;28;1984;-93
2022/07/18 01:31:00;;;;;;;;;;;;;;;17.87;59.93;100752.19;5110205;28;1982;-94
2022/07/18 01:33:27;;;;;;;;;;;;;;;17.86;60.10;100753.28;5115341;28;1561;-94
2022/07/18 01:35:53;;;;;;;;;;;;;;;17.86;60.11;100744.31;5102115;28;1899;-94
2022/07/18 01:38:20;;;;;;;;;;;;;;;17.85;59.99;100748.94;5110125;28;1452;-93
2022/07/18 01:40:46;;;;;;;;;;;;;;;17.83;60.18;100740.19;5097251;28;1930;-93
2022/07/18 01:43:13;;;;;;;;;;;;;;;17.82;60.02;100738.53;5110796;28;3246;-94
2022/07/18 01:45:39;;;;;;;;;;;;;;;17.82;60.03;100740.44;5103001;28;1878;-94
2022/07/18 01:48:06;;;;;;;;;;;;;;;17.81;60.03;100739.63;5116246;28;1993;-94
2022/07/18 01:50:32;;;;;;;;;;;;;;;17.81;60.06;100744.25;5100090;28;2697;-93
2022/07/18 01:52:59;;;;;;;;;;;;;;;17.79;60.09;100747.22;5096322;28;1522;-94
2022/07/18 01:55:26;;;;;;;;;;;;;;;17.79;60.10;100747.22;5108152;28;2225;-93
2022/07/18 01:57:52;;;;;;;;;;;;;;;17.78;60.12;100756.50;5116384;28;1627;-94
2022/07/18 02:00:19;;;;;;;;;;;;;;;17.77;59.82;100760.28;5100343;28;1622;-93
2022/07/18 02:02:45;;;;;;;;;;;;;;;17.77;60.00;100754.03;5099879;28;1926;-93
2022/07/18 02:05:12;;;;;;;;;;;;;;;17.76;59.93;100755.09;5109635;28;1946;-94
2022/07/18 02:07:38;;;;;;;;;;;;;;;17.75;60.00;100758.91;5110418;28;1969;-93
2022/07/18 02:10:05;;;;;;;;;;;;;;;17.74;59.96;100755.38;5095808;28;2019;-94
2022/07/18 02:12:31;;;;;;;;;;;;;;;17.74;60.12;100751.81;5116231;27;1606;-93
2022/07/18 02:14:58;;;;;;;;;;;;;;;17.73;59.79;100747.44;5104443;28;1619;-93
2022/07/18 02:17:25;;;;;;;;;;;;;;;17.72;59.86;100741.19;5102199;27;1867;-94
2022/07/18 02:19:51;;;;;;;;;;;;;;;17.71;59.75;100745.81;5126979;27;2203;-94
2022/07/18 02:22:18;;;;;;;;;;;;;;;17.71;59.85;100728.66;5108410;28;1577;-93
2022/07/18 02:24:44;;;;;;;;;;;;;;;17.70;59.90;100727.81;5102347;28;1927;-93
2022/07/18 02:27:11;;;;;;;;;;;;;;;17.69;59.91;100730.81;5103257;28;2012;-94
2022/07/18 02:29:37;;;;;;;;;;;;;;;17.68;59.83;100732.72;5116103;28;1989;-94
2022/07/18 02:32:04;;;;;;;;;;;;;;;17.67;59.86;100728.34;5108193;28;1974;-94
2022/07/18 02:34:30;;;;;;;;;;;;;;;17.67;59.83;100719.34;5110722;28;1585;-94
2022/07/18 02:36:57;;;;;;;;;;;;;;;17.66;59.76;100718.53;5100797;28;2016;-94
2022/07/18 02:39:23;;;;;;;;;;;;;;;17.66;59.77;100712.28;5114977;28;1921;-94
2022/07/18 02:41:50;;;;;;;;;;;;;;;17.65;59.69;100706.00;5109188;28;2124;-94
2022/07/18 02:44:16;;;;;;;;;;;;;;;17.65;59.74;100708.75;5104939;28;1670;-94
2022/07/18 02:46:43;;;;;;;;;;;;;;;17.64;59.92;100707.06;5115237;28;1610;-93
2022/07/18 02:49:10;;;;;;;;;;;;;;;17.64;59.83;100700.81;5096010;28;1901;-94
2022/07/18 02:51:36;;;;;;;;;;;;;;;17.63;59.75;100685.56;5094975;28;1632;-93
2022/07/18 02:54:03;;;;;;;;;;;;;;;17.62;59.94;100697.56;5113654;27;1638;-93
2022/07/18 02:56:30;;;;;;;;;;;;;;;17.62;59.72;100703.00;5097060;28;1878;-94
2022/07/18 02:58:56;;;;;;;;;;;;;;;17.60;59.85;100700.53;5099364;28;1925;-94
2022/07/18 03:01:23;;;;;;;;;;;;;;;17.60;59.86;100694.25;5113712;27;1967;-93
2022/07/18 03:03:49;;;;;;;;;;;;;;;17.58;59.93;100699.97;5102880;28;4844;-94
2022/07/18 03:06:16;;;;;;;;;;;;;;;17.59;59.87;100698.06;5099777;28;1389;-93
2022/07/18 03:08:42;;;;;;;;;;;;;;;17.59;59.78;100695.31;5123829;27;1910;-94
2022/07/18 03:11:09;;;;;;;;;;;;;;;17.57;59.63;100687.44;5106660;28;1592;-93
2022/07/18 03:13:36;;;;;;;;;;;;;;;17.57;59.84;100705.69;5106449;28;1662;-93
2022/07/18 03:16:02;;;;;;;;;;;;;;;17.56;59.64;100707.59;5095254;28;1413;-94
2022/07/18 03:18:29;;;;;;;;;;;;;;;17.57;59.64;100708.41;5100563;28;1831;-94
2022/07/18 03:20:55;;;;;;;;;;;;;;;17.57;59.76;100719.31;5107934;28;1669;-94
2022/07/18 03:23:22;;;;;;;;;;;;;;;17.55;59.58;100716.81;5094327;28;1960;-94
2022/07/18 03:25:48;;;;;;;;;;;;;;;17.54;59.48;100717.91;5117993;27;1551;-94
2022/07/18 03:28:15;;;;;;;;;;;;;;;17.53;59.62;100715.44;5094221;28;1902;-94
2022/07/18 03:30:42;;;;;;;;;;;;;;;17.53;59.74;100708.13;5100317;28;1605;-94
2022/07/18 03:33:08;;;;;;;;;;;;;;;17.53;59.66;100712.72;5095989;28;2500;-94
2022/07/18 03:35:35;;;;;;;;;;;;;;;17.52;59.74;100709.19;5100837;28;2511;-91
2022/07/18 03:38:02;;;;;;;;;;;;;;;17.51;59.65;100707.53;5103552;28;1378;-93
2022/07/18 03:40:28;;;;;;;;;;;;;;;17.50;59.79;100700.47;5106683;28;1713;-94
2022/07/18 03:42:55;;;;;;;;;;;;;;;17.49;59.58;100699.63;5101853;28;1554;-94
2022/07/18 03:45:21;;;;;;;;;;;;;;;17.48;59.66;100695.28;5100134;28;1512;-94
2022/07/18 03:47:48;;;;;;;;;;;;;;;17.48;59.50;100694.47;5094721;28;1437;-94
2022/07/18 03:50:14;;;;;;;;;;;;;;;17.48;59.45;100694.47;5102116;28;1983;-94
2022/07/18 03:52:41;;;;;;;;;;;;;;;17.48;59.67;100691.75;5097405;28;2150;-94
2022/07/18 03:55:07;;;;;;;;;;;;;;;17.46;59.78;100681.09;5111102;28;1526;-94
2022/07/18 03:57:34;;;;;;;;;;;;;;;17.46;59.47;100683.81;5107974;28;1422;-94
2022/07/18 04:00:00;;;;;;;;;;;;;;;17.46;59.57;100683.81;5102524;28;1953;-93
2022/07/18 04:02:27;;;;;;;;;;;;;;;17.45;59.41;100690.34;5101868;28;1949;-93
2022/07/18 04:04:53;;;;;;;;;;;;;;;17.44;59.50;100688.72;5107634;28;1970;-94
2022/07/18 04:07:20;;;;;;;;;;;;;;;17.44;59.58;100694.16;5103785;28;1600;-94
2022/07/18 04:09:46;;;;;;;;;;;;;;;17.43;59.56;100697.13;5100278;28;1972;-94
2022/07/18 04:12:13;;;;;;;;;;;;;;;17.41;59.35;100697.41;5108140;28;1549;-94
2022/07/18 04:14:39;;;;;;;;;;;;;;;17.42;59.35;100706.41;5105300;28;3473;-94
2022/07/18 04:17:06;;;;;;;;;;;;;;;17.42;59.47;100703.69;5101217;28;1629;-94
2022/07/18 04:19:34;;;;;;;;;;;;;;;17.41;59.51;100697.41;5111605;28;1673;-94
2022/07/18 04:22:00;;;;;;;;;;;;;;;17.41;59.57;100700.13;5109580;28;2123;-94
2022/07/18 04:24:27;;;;;;;;;;;;;;;17.39;59.57;100687.88;5113639;28;1193;-94
2022/07/18 04:26:53;;;;;;;;;;;;;;;17.38;59.34;100695.22;5096798;28;1921;-95
2022/07/18 04:29:20;;;;;;;;;;;;;;;17.37;59.45;100679.13;5098838;28;1975;-94
2022/07/18 04:31:47;;;;;;;;;;;;;;;17.38;59.41;100669.88;5093791;28;2310;-94
2022/07/18 04:34:13;;;;;;;;;;;;;;;17.38;59.43;100678.88;5105232;28;1592;-94
2022/07/18 04:36:40;;;;;;;;;;;;;;;17.36;59.61;100678.31;5094325;28;1274;-94
2022/07/18 04:39:06;;;;;;;;;;;;;;;17.36;59.58;100677.50;5093400;28;1627;-94
2022/07/18 04:41:33;;;;;;;;;;;;;;;17.36;59.43;100681.03;5102969;28;2090;-94
2022/07/18 04:43:59;;;;;;;;;;;;;;;17.36;59.47;100682.94;5103250;28;1930;-94
2022/07/18 04:46:26;;;;;;;;;;;;;;;17.35;59.48;100689.44;5113808;28;1862;-94
2022/07/18 04:48:52;;;;;;;;;;;;;;;17.35;59.58;100697.63;5108114;28;1909;-94
2022/07/18 04:51:19;;;;;;;;;;;;;;;17.34;59.43;100701.44;5096479;28;1521;-94
2022/07/18 04:53:45;;;;;;;;;;;;;;;17.32;59.43;100696.22;5097138;28;1572;-95
2022/07/18 04:56:12;;;;;;;;;;;;;;;17.33;59.59;100702.53;5114844;28;1660;-94
2022/07/18 04:58:38;;;;;;;;;;;;;;;17.33;59.54;100707.97;5102864;28;1632;-95
2022/07/18 05:01:05;;;;;;;;;;;;;;;17.32;59.48;100709.03;5122026;27;1865;-95
2022/07/18 05:03:32;;;;;;;;;;;;;;;17.31;59.60;100712.84;5098544;28;1771;-94
2022/07/18 05:05:58;;;;;;;;;;;;;;;17.31;59.56;100719.09;5117896;27;1460;-94
2022/07/18 05:08:26;;;;;;;;;;;;;;;17.31;59.51;100713.66;5108722;28;1933;-95
2022/07/18 05:10:52;;;;;;;;;;;;;;;17.30;59.40;100725.63;5097769;28;2039;-96
2022/07/18 05:13:19;;;;;;;;;;;;;;;17.30;59.36;100728.38;5105552;28;2265;-95
2022/07/18 05:15:46;;;;;;;;;;;;;;;17.29;59.41;100729.41;5099032;28;1596;-95
2022/07/18 05:18:12;;;;;;;;;;;;;;;17.30;59.43;100727.53;5101632;28;1977;-95
2022/07/18 05:20:39;;;;;;;;;;;;;;;17.28;59.38;100724.25;5117585;28;1322;-95
2022/07/18 05:23:05;;;;;;;;;;;;;;;17.29;59.36;100717.72;5117353;28;2450;-95
2022/07/18 05:25:33;;;;;;;;;;;;;;;17.27;59.31;100711.72;5117498;28;1169;-95
2022/07/18 05:28:00;;;;;;;;;;;;;;;17.27;59.34;100706.28;5112516;28;1804;-94
2022/07/18 05:30:26;;;;;;;;;;;;;;;17.26;59.61;100705.44;5100412;28;1909;-94
2022/07/18 05:32:53;;;;;;;;;;;;;;;17.24;59.49;100694.03;5106757;27;4898;-95
2022/07/18 05:35:19;;;;;;;;;;;;;;;17.24;59.29;100700.28;5108030;28;4598;-94
2022/07/18 05:37:46;;;;;;;;;;;;;;;17.24;59.44;100702.19;5105369;28;1878;-94
2022/07/18 05:40:12;;;;;;;;;;;;;;;17.23;59.37;100709.50;5113060;28;1514;-95
2022/07/18 05:42:39;;;;;;;;;;;;;;;17.23;59.32;100695.91;5112615;28;1795;-95
2022/07/18 05:45:05;;;;;;;;;;;;;;;17.23;59.40;100695.09;5096101;28;1606;-93
2022/07/18 05:47:32;;;;;;;;;;;;;;;17.24;59.33;100694.84;5114067;28;1383;-95
2022/07/18 05:49:58;;;;;;;;;;;;;;;17.22;59.29;100691.53;5110886;28;1902;-95
2022/07/18 05:52:25;;;;;;;;;;;;;;;17.23;59.33;100689.63;5107285;28;1905;-96
2022/07/18 05:54:52;;;;;;;;;;;;;;;17.22;59.46;100709.78;5099719;28;2362;-95
2022/07/18 05:57:18;;;;;;;;;;;;;;;17.21;59.39;100698.09;5103871;28;1824;-95
2022/07/18 05:59:45;;;;;;;;;;;;;;;17.20;59.48;100696.41;5114358;28;1674;-95
2022/07/18 06:02:11;;;;;;;;;;;;;;;17.20;59.22;100682.81;5116794;27;1968;-95
2022/07/18 06:04:38;;;;;;;;;;;;;;;17.20;59.26;100671.09;5108530;28;2599;-95
2022/07/18 06:07:05;;;;;;;;;;;;;;;17.18;59.22;100660.50;5104756;28;1361;-95
2022/07/18 06:09:31;;;;;;;;;;;;;;;17.18;59.43;100665.13;5116584;28;1901;-95
2022/07/18 06:11:58;;;;;;;;;;;;;;;17.18;59.24;100676.84;5110324;28;1907;-94
2022/07/18 06:14:24;;;;;;;;;;;;;;;17.18;59.37;100665.13;5113999;28;2204;-94
2022/07/18 06:16:50;;;;;;;;;;;;;;;17.18;59.06;100646.91;5116562;28;1215;-95
2022/07/18 06:19:17;;;;;;;;;;;;;;;17.16;59.27;100640.06;5108743;28;2017;-95
2022/07/18 06:21:44;;;;;;;;;;;;;;;17.16;59.28;100635.44;5114017;28;2265;-94
2022/07/18 06:24:10;;;;;;;;;;;;;;;17.18;59.28;100651.53;5116370;28;1285;-95
2022/07/18 06:26:37;;;;;;;;;;;;;;;17.17;59.30;100664.28;5116570;28;1245;-94
2022/07/18 06:29:03;;;;;;;;;;;;;;;17.16;59.17;100654.50;5115955;28;1909;-95
2022/07/18 06:31:30;;;;;;;;;;;;;;;17.18;59.26;100656.97;5112521;28;1926;-95
2022/07/18 06:33:56;;;;;;;;;;;;;;;17.17;59.33;100649.84;5112255;28;1796;-94
2022/07/18 06:36:24;;;;;;;;;;;;;;;17.16;59.33;100645.50;5105810;28;1712;-94
2022/07/18 06:38:51;;;;;;;;;;;;;;;17.15;59.25;100650.13;5100640;28;1928;-94
2022/07/18 06:41:17;;;;;;;;;;;;;;;17.17;59.24;100653.41;5106824;28;1758;-94
2022/07/18 06:43:44;;;;;;;;;;;;;;;17.17;59.14;100633.53;5111603;28;2504;-94
2022/07/18 06:46:11;;;;;;;;;;;;;;;17.16;59.14;100640.88;5108687;28;2495;-94
2022/07/18 06:48:37;;;;;;;;;;;;;;;17.17;59.13;100655.31;5101029;28;2004;-94
2022/07/18 06:51:04;;;;;;;;;;;;;;;17.18;59.18;100659.69;5094631;28;2592;-94
2022/07/18 06:53:30;;;;;;;;;;;;;;;17.18;59.17;100659.69;5104540;28;1237;-94
2022/07/18 06:55:57;;;;;;;;;;;;;;;17.18;59.20;100659.69;5118095;27;1265;-94
2022/07/18 06:58:23;;;;;;;;;;;;;;;17.17;58.97;100649.84;5119087;27;1326;-94
2022/07/18 07:00:50;;;;;;;;;;;;;;;17.18;59.21;100651.53;5109100;28;1684;-93
2022/07/18 07:03:18;;;;;;;;;;;;;;;17.18;59.07;100654.25;5108072;27;2730;-94
2022/07/18 07:05:44;;;;;;;;;;;;;;;17.18;59.05;100652.34;5110616;27;1385;-93
2022/07/18 07:08:11;;;;;;;;;;;;;;;17.19;59.12;100658.59;5125475;27;1175;-93
2022/07/18 07:10:38;;;;;;;;;;;;;;;17.17;59.02;100650.69;5112402;28;1906;-94
2022/07/18 07:13:05;;;;;;;;;;;;;;;17.18;59.06;100646.06;5116386;27;1954;-93
2022/07/18 07:15:31;;;;;;;;;;;;;;;17.17;59.06;100652.59;5118777;27;1210;-94
2022/07/18 07:17:58;;;;;;;;;;;;;;;17.18;59.07;100649.63;5118597;28;1228;-93
2022/07/18 07:20:24;;;;;;;;;;;;;;;17.18;59.10;100651.53;5118401;27;1326;-93
2022/07/18 07:22:51;;;;;;;;;;;;;;;17.18;59.03;100657.78;5118480;27;1173;-93
2022/07/18 07:25:17;;;;;;;;;;;;;;;17.19;59.06;100656.69;5109407;28;2406;-94
2022/07/18 07:27:44;;;;;;;;;;;;;;;17.19;58.95;100655.88;5107773;27;1317;-94
2022/07/18 07:30:10;;;;;;;;;;;;;;;17.19;58.96;100653.16;5109615;28;1981;-93
2022/07/18 07:32:37;;;;;;;;;;;;;;;17.19;59.08;100650.44;5099425;28;1366;-93
2022/07/18 07:35:06;;;;;;;;;;;;;;;17.19;58.99;100653.97;5097848;28;1187;-94
2022/07/18 07:37:32;;;;;;;;;;;;;;;17.17;58.89;100650.69;5097916;28;1179;-93
2022/07/18 07:39:59;;;;;;;;;;;;;;;17.18;58.98;100652.34;5097627;28;1272;-94
2022/07/18 07:42:25;;;;;;;;;;;;;;;17.18;58.91;100646.91;5098807;27;2124;-93
2022/07/18 07:44:52;;;;;;;;;;;;;;;17.19;59.08;100650.44;5107518;28;1864;-94
2022/07/18 07:47:18;;;;;;;;;;;;;;;17.19;59.02;100648.53;5108435;28;1369;-93
2022/07/18 07:49:45;;;;;;;;;;;;;;;17.21;58.97;100651.00;5097876;28;1979;-94
2022/07/18 07:52:13;;;;;;;;;;;;;;;17.20;58.81;100643.91;5113208;27;1830;-93
2022/07/18 07:54:40;;;;;;;;;;;;;;;17.20;59.20;100644.72;5118528;28;1308;-93
2022/07/18 07:57:06;;;;;;;;;;;;;;;17.21;59.02;100640.13;5101820;28;1257;-94
2022/07/18 07:59:33;;;;;;;;;;;;;;;17.22;58.83;100639.03;5097986;28;1234;-93
2022/07/18 08:01:59;;;;;;;;;;;;;;;17.22;58.99;100637.13;5108991;28;1265;-94
2022/07/18 08:04:26;;;;;;;;;;;;;;;17.22;58.95;100633.56;5110285;28;4990;-94
2022/07/18 08:06:52;;;;;;;;;;;;;;;17.22;59.00;100636.28;5100024;28;1594;-94
2022/07/18 08:09:19;;;;;;;;;;;;;;;17.23;58.91;100641.47;5097128;28;1902;-94
2022/07/18 08:11:45;;;;;;;;;;;;;;;17.24;58.85;100636.88;5107062;28;1479;-93
2022/07/18 08:14:12;;;;;;;;;;;;;;;17.24;58.89;100631.41;5097649;28;1171;-93
2022/07/18 08:16:38;;;;;;;;;;;;;;;17.23;59.00;100625.13;5106407;28;1922;-94
2022/07/18 08:19:05;;;;;;;;;;;;;;;17.22;58.93;100623.50;5118760;28;1284;-93
2022/07/18 08:21:31;;;;;;;;;;;;;;;17.23;58.98;100619.69;5111268;28;1826;-94
2022/07/18 08:23:58;;;;;;;;;;;;;;;17.24;58.88;100610.47;5107259;28;1186;-94
2022/07/18 08:26:25;;;;;;;;;;;;;;;17.25;58.79;100605.84;5120283;27;1292;-93
2022/07/18 08:28:51;;;;;;;;;;;;;;;17.25;58.86;100608.56;5121608;27;1197;-94
2022/07/18 08:31:18;;;;;;;;;;;;;;;17.27;58.79;100613.75;5121903;27;1918;-94
2022/07/18 08:33:44;;;;;;;;;;;;;;;17.25;58.95;100605.84;5118552;27;2558;-94
2022/07/18 08:36:11;;;;;;;;;;;;;;;17.26;58.94;100604.75;5104371;28;1997;-94
2022/07/18 08:38:38;;;;;;;;;;;;;;;17.25;58.84;100614.00;5117548;28;1383;-94
2022/07/18 08:41:04;;;;;;;;;;;;;;;17.26;58.81;100607.47;5112157;27;2017;-94
2022/07/18 08:43:31;;;;;;;;;;;;;;;17.25;58.86;100597.66;5111320;27;1270;-94
2022/07/18 08:45:57;;;;;;;;;;;;;;;17.25;58.97;100601.22;5121364;27;1329;-94
2022/07/18 08:48:24;;;;;;;;;;;;;;;17.24;58.96;100596.84;5121736;27;1197;-94
2022/07/18 08:50:50;;;;;;;;;;;;;;;17.26;58.80;100596.56;5121392;27;1981;-94
2022/07/18 08:53:17;;;;;;;;;;;;;;;17.28;59.08;100593.59;5121465;27;1369;-94
2022/07/18 08:55:43;;;;;;;;;;;;;;;17.28;58.97;100590.88;5117625;27;1818;-94
2022/07/18 08:58:12;;;;;;;;;;;;;;;17.29;58.94;100590.59;5106556;28;1483;-94
2022/07/18 09:00:38;;;;;;;;;;;;;;;17.29;58.94;100590.59;5100866;28;1196;-93
2022/07/18 09:03:05;;;;;;;;;;;;;;;17.30;59.03;100594.16;5101129;28;1277;-94
2022/07/18 09:05:31;;;;;;;;;;;;;;;17.29;58.91;100596.06;5101020;28;1219;-94
2022/07/18 09:07:58;;;;;;;;;;;;;;;17.31;58.87;100606.69;5101119;28;1204;-93
2022/07/18 09:10:24;;;;;;;;;;;;;;;17.31;58.94;100603.97;5100440;28;1974;-94
2022/07/18 09:12:51;;;;;;;;;;;;;;;17.32;59.00;100611.84;5114301;27;2519;-94
2022/07/18 09:15:17;;;;;;;;;;;;;;;17.32;58.97;100611.03;5109077;28;3752;-94
2022/07/18 09:17:44;;;;;;;;;;;;;;;17.31;58.91;100612.13;5100623;27;2228;-94
2022/07/18 09:20:11;;;;;;;;;;;;;;;17.31;59.12;100615.66;5110200;28;2789;-94
2022/07/18 09:22:38;;;;;;;;;;;;;;;17.31;59.19;100618.38;5110525;27;1373;-94
2022/07/18 09:25:05;;;;;;;;;;;;;;;17.31;59.26;100618.38;5118925;27;2200;-94
2022/07/18 09:27:31;;;;;;;;;;;;;;;17.32;59.28;100605.59;5100338;28;1195;-93
2022/07/18 09:29:58;;;;;;;;;;;;;;;17.34;59.09;100606.16;5100712;28;1910;-95
2022/07/18 09:32:24;;;;;;;;;;;;;;;17.34;59.12;100617.88;5100180;28;2467;-94
2022/07/18 09:34:51;;;;;;;;;;;;;;;17.35;59.10;100610.50;5100059;28;1458;-94
2022/07/18 09:37:17;;;;;;;;;;;;;;;17.36;59.18;100606.72;5099733;28;1346;-93
2022/07/18 09:39:44;;;;;;;;;;;;;;;17.37;59.04;100611.06;5100096;28;1242;-94
2022/07/18 09:42:10;;;;;;;;;;;;;;;17.36;59.04;100613.00;5099993;28;1516;-94
2022/07/18 09:44:37;;;;;;;;;;;;;;;17.38;59.03;100613.56;5109956;27;1231;-94
2022/07/18 09:47:03;;;;;;;;;;;;;;;17.39;59.12;100611.66;5104067;28;1299;-93
2022/07/18 09:49:30;;;;;;;;;;;;;;;17.40;59.22;100614.09;5109821;27;1259;-94
2022/07/18 09:51:56;;;;;;;;;;;;;;;17.40;59.06;100602.38;5107854;28;2034;-94
2022/07/18 09:54:23;;;;;;;;;;;;;;;17.41;59.11;100598.56;5109835;27;1450;-94
2022/07/18 09:56:50;;;;;;;;;;;;;;;17.42;59.22;100603.75;5119975;27;1187;-94
2022/07/18 09:59:16;;;;;;;;;;;;;;;17.43;59.04;100599.94;5107686;28;1601;-94
2022/07/18 10:01:43;;;;;;;;;;;;;;;17.45;59.14;100599.69;5110408;27;1183;-94
2022/07/18 10:04:09;;;;;;;;;;;;;;;17.46;58.97;100598.59;5114479;27;1286;-94
2022/07/18 10:06:38;;;;;;;;;;;;;;;17.46;58.95;100587.72;5114656;27;1998;-94
2022/07/18 10:09:07;;;;;;;;;;;;;;;17.47;59.03;100587.47;5120700;27;1162;-94
2022/07/18 10:11:34;;;;;;;;;;;;;;;17.48;59.16;100594.53;5120100;27;1972;-95
2022/07/18 10:14:00;;;;;;;;;;;;;;;17.50;59.18;100588.84;5118750;27;1904;-94
2022/07/18 10:16:27;;;;;;;;;;;;;;;17.49;59.09;100585.28;5120981;27;1295;-94
2022/07/18 10:18:54;;;;;;;;;;;;;;;17.51;59.04;100587.75;5119327;27;1764;-94
2022/07/18 10:21:20;;;;;;;;;;;;;;;17.53;59.11;100595.63;5118703;27;1308;-94
2022/07/18 10:23:47;;;;;;;;;;;;;;;17.54;59.23;100589.13;5105770;28;1207;-94
2022/07/18 10:26:13;;;;;;;;;;;;;;;17.54;59.17;100595.38;5099452;28;1322;-95
2022/07/18 10:28:40;;;;;;;;;;;;;;;17.55;59.30;100602.47;5108064;27;1900;-94
2022/07/18 10:31:07;;;;;;;;;;;;;;;17.55;59.13;100590.75;5099047;28;1918;-94
2022/07/18 10:33:34;;;;;;;;;;;;;;;17.57;59.30;100597.56;5098542;27;5042;-94
2022/07/18 10:36:00;;;;;;;;;;;;;;;17.57;59.26;100589.41;5099745;28;2013;-95
2022/07/18 10:38:27;;;;;;;;;;;;;;;17.58;59.19;100593.75;5103554;28;1827;-94
2022/07/18 10:40:53;;;;;;;;;;;;;;;17.59;59.26;100595.41;5099103;28;1374;-94
2022/07/18 10:43:20;;;;;;;;;;;;;;;17.60;59.30;100594.31;5109722;27;1290;-95
2022/07/18 10:45:46;;;;;;;;;;;;;;;17.60;59.22;100591.59;5118988;27;1308;-94
2022/07/18 10:48:13;;;;;;;;;;;;;;;17.62;59.41;100594.06;5118806;28;1293;-94
2022/07/18 10:50:39;;;;;;;;;;;;;;;17.63;59.34;100584.81;5119027;27;1914;-95
2022/07/18 10:53:06;;;;;;;;;;;;;;;17.64;59.27;100594.59;5118811;27;1331;-95
2022/07/18 10:55:32;;;;;;;;;;;;;;;17.65;59.26;100583.47;5122081;27;2235;-95
2022/07/18 10:57:59;;;;;;;;;;;;;;;17.65;59.40;100585.38;5116546;27;1250;-95
2022/07/18 11:00:25;;;;;;;;;;;;;;;17.66;59.35;100584.28;5118931;27;1292;-94
2022/07/18 11:02:51;;;;;;;;;;;;;;;17.67;59.32;100577.72;5119744;27;1280;-95
2022/07/18 11:05:18;;;;;;;;;;;;;;;17.68;59.44;100580.19;5112857;28;2660;-94
2022/07/18 11:07:45;;;;;;;;;;;;;;;17.69;59.56;100590.00;5109083;27;1437;-95
2022/07/18 11:10:11;;;;;;;;;;;;;;;17.71;59.37;100589.75;5117954;27;1909;-95
2022/07/18 11:12:38;;;;;;;;;;;;;;;17.71;59.60;100589.75;5098362;28;1307;-95
2022/07/18 11:15:05;;;;;;;;;;;;;;;17.74;59.49;100591.13;5098665;28;1510;-95
2022/07/18 11:17:31;;;;;;;;;;;;;;;17.76;59.33;100591.66;5099152;28;1260;-95
2022/07/18 11:19:58;;;;;;;;;;;;;;;17.76;59.45;100592.47;5102845;28;1610;-95
2022/07/18 11:22:24;;;;;;;;;;;;;;;17.76;59.44;100587.03;5098231;28;1168;-95
2022/07/18 11:24:51;;;;;;;;;;;;;;;17.77;59.67;100587.88;5097917;28;1703;-95
2022/07/18 11:27:17;;;;;;;;;;;;;;;17.78;59.64;100589.53;5107264;27;1321;-94
2022/07/18 11:29:44;;;;;;;;;;;;;;;17.79;59.69;100599.31;5098451;28;1927;-95
2022/07/18 11:32:10;;;;;;;;;;;;;;;17.80;59.70;100590.91;5097999;28;1977;-94
2022/07/18 11:34:37;;;;;;;;;;;;;;;17.81;59.92;100584.34;5097929;28;1311;-95
2022/07/18 11:37:04;;;;;;;;;;;;;;;17.82;59.71;100587.91;5098267;28;1211;-95
2022/07/18 11:39:30;;;;;;;;;;;;;;;17.84;59.93;100591.19;5098094;28;1297;-95
2022/07/18 11:41:57;;;;;;;;;;;;;;;17.84;59.93;100577.56;5098265;28;1279;-94
2022/07/18 11:44:26;;;;;;;;;;;;;;;17.86;59.70;100581.66;5104804;27;3644;-95
2022/07/18 11:46:53;;;;;;;;;;;;;;;17.87;59.67;100586.00;5098329;28;1296;-94
2022/07/18 11:49:19;;;;;;;;;;;;;;;17.88;59.97;100576.78;5099661;28;1764;-95
2022/07/18 11:51:46;;;;;;;;;;;;;;;17.89;60.16;100581.13;5112716;27;1897;-95
2022/07/18 11:54:13;;;;;;;;;;;;;;;17.90;59.95;100574.56;5116863;27;1907;-95
2022/07/18 11:56:39;;;;;;;;;;;;;;;17.92;59.63;100583.31;5117908;28;1208;-95
2022/07/18 11:59:06;;;;;;;;;;;;;;;17.92;59.78;100575.13;5118012;27;1241;-95
2022/07/18 12:01:32;;;;;;;;;;;;;;;17.95;59.75;100578.41;5120494;27;2401;-94
2022/07/18 12:03:59;;;;;;;;;;;;;;;17.97;59.59;100570.78;5104616;28;1309;-94
2022/07/18 12:06:27;;;;;;;;;;;;;;;17.97;59.63;100563.44;5115202;27;1186;-94
2022/07/18 12:08:55;;;;;;;;;;;;;;;17.98;59.81;100570.53;5124760;27;1363;-96
2022/07/18 12:11:22;;;;;;;;;;;;;;;17.99;59.58;100572.16;5124920;27;1985;-95
2022/07/18 12:13:48;;;;;;;;;;;;;;;18.01;59.56;100563.72;5124781;27;1188;-94
2022/07/18 12:16:15;;;;;;;;;;;;;;;18.02;59.76;100574.34;5125031;27;1198;-95
2022/07/18 12:18:42;;;;;;;;;;;;;;;18.04;59.71;100565.91;5121903;27;1997;-94
2022/07/18 12:21:08;;;;;;;;;;;;;;;18.04;59.91;100563.19;5109528;28;1357;-95
2022/07/18 12:23:35;;;;;;;;;;;;;;;18.06;59.91;100563.72;5115480;27;1226;-95
2022/07/18 12:26:01;;;;;;;;;;;;;;;18.07;59.65;100555.28;5106931;27;1891;-94
2022/07/18 12:28:28;;;;;;;;;;;;;;;18.08;59.77;100550.66;5127097;27;2184;-95
2022/07/18 12:30:54;;;;;;;;;;;;;;;18.09;59.92;100557.75;5145063;27;1980;-95
2022/07/18 12:33:21;;;;;;;;;;;;;;;18.10;60.04;100556.66;5133792;27;1410;-95
2022/07/18 12:35:47;;;;;;;;;;;;;;;18.11;59.75;100564.53;5119941;27;1862;-95
2022/07/18 12:38:14;;;;;;;;;;;;;;;18.12;60.02;100551.75;5111483;28;1671;-95
2022/07/18 12:40:41;;;;;;;;;;;;;;;18.14;60.12;100550.38;5103849;28;2003;-95
2022/07/18 12:43:07;;;;;;;;;;;;;;;18.15;59.97;100546.59;5108086;27;2020;-94
2022/07/18 12:45:34;;;;;;;;;;;;;;;18.17;60.04;100549.03;5106288;27;1744;-95